createdAt,value
2023-04-04T00:00:16.896Z,9.00
2023-04-04T00:03:02.575Z,9.20
2023-04-04T00:05:48.947Z,9.30
2023-04-04T00:08:34.372Z,9.30
2023-04-04T00:11:22.119Z,9.20
2023-04-04T00:14:08.146Z,9.10
2023-04-04T00:16:53.691Z,9.10
2023-04-04T00:19:39.480Z,8.90
2023-04-04T00:22:25.075Z,8.90
2023-04-04T00:25:10.995Z,8.80
2023-04-04T00:28:00.601Z,8.60
2023-04-04T00:30:49.588Z,8.40
2023-04-04T00:33:35.257Z,8.40
2023-04-04T00:36:21.109Z,8.40
2023-04-04T00:39:07.247Z,8.40
2023-04-04T00:41:52.697Z,8.40
2023-04-04T00:44:38.422Z,8.40
2023-04-04T00:47:24.703Z,8.40
2023-04-04T00:50:10.571Z,8.30
2023-04-04T00:52:56.996Z,8.40
2023-04-04T00:55:44.024Z,8.40
2023-04-04T00:58:30.115Z,8.50
2023-04-04T01:01:16.246Z,8.50
2023-04-04T01:04:03.432Z,8.50
2023-04-04T01:06:49.895Z,8.60
2023-04-04T01:09:35.789Z,8.60
2023-04-04T01:12:21.512Z,8.60
2023-04-04T01:15:07.381Z,8.50
2023-04-04T01:17:55.459Z,8.50
2023-04-04T01:20:44.330Z,8.30
2023-04-04T01:23:35.122Z,8.30
2023-04-04T01:26:22.102Z,8.30
2023-04-04T01:29:08.096Z,8.30
2023-04-04T01:31:58.708Z,8.30
2023-04-04T01:34:57.405Z,8.30
2023-04-04T01:38:15.872Z,8.30
2023-04-04T01:41:03.983Z,8.20
2023-04-04T01:43:52.746Z,8.20
2023-04-04T01:46:38.502Z,8.20
2023-04-04T01:49:24.520Z,8.20
2023-04-04T01:52:11.105Z,8.20
2023-04-04T01:54:57.284Z,8.20
2023-04-04T01:57:43.151Z,8.10
2023-04-04T02:00:29.329Z,8.00
2023-04-04T02:03:15.013Z,8.10
2023-04-04T02:06:00.545Z,8.10
2023-04-04T02:08:46.936Z,8.10
2023-04-04T02:11:33.295Z,8.10
2023-04-04T02:14:19.593Z,8.10
2023-04-04T02:17:05.162Z,8.10
2023-04-04T02:19:50.851Z,8.00
2023-04-04T02:22:36.518Z,8.10
2023-04-04T02:25:22.903Z,8.10
2023-04-04T02:28:08.321Z,8.10
2023-04-04T02:30:54.183Z,8.00
2023-04-04T02:33:39.693Z,8.00
2023-04-04T02:36:27.642Z,8.00
2023-04-04T02:39:15.255Z,8.00
2023-04-04T02:42:00.974Z,8.00
2023-04-04T02:44:46.453Z,8.00
2023-04-04T02:47:34.925Z,7.90
2023-04-04T02:50:20.461Z,7.90
2023-04-04T02:53:13.123Z,7.90
2023-04-04T02:55:58.678Z,7.90
2023-04-04T02:58:44.652Z,7.80
2023-04-04T03:01:31.064Z,7.90
2023-04-04T03:04:19.866Z,7.80
2023-04-04T03:07:06.037Z,7.80
2023-04-04T03:09:51.649Z,7.70
2023-04-04T03:12:37.223Z,7.70
2023-04-04T03:15:23.389Z,7.70
2023-04-04T03:18:08.965Z,7.80
2023-04-04T03:20:54.677Z,7.70
2023-04-04T03:23:40.666Z,7.70
2023-04-04T03:26:28.391Z,7.70
2023-04-04T03:29:14.265Z,7.70
2023-04-04T03:32:00.082Z,7.70
2023-04-04T03:34:45.799Z,7.80
2023-04-04T03:37:31.934Z,7.70
2023-04-04T03:40:17.917Z,7.70
2023-04-04T03:43:03.541Z,7.70
2023-04-04T03:45:49.339Z,7.80
2023-04-04T03:48:34.695Z,7.80
2023-04-04T03:51:25.368Z,7.70
2023-04-04T03:54:10.780Z,7.70
2023-04-04T03:56:57.205Z,7.80
2023-04-04T03:59:43.390Z,7.80
2023-04-04T04:02:29.600Z,7.80
2023-04-04T04:05:15.584Z,7.80
2023-04-04T04:08:01.092Z,7.80
2023-04-04T04:10:46.802Z,7.80
2023-04-04T04:13:33.215Z,7.70
2023-04-04T04:16:22.048Z,7.70
2023-04-04T04:19:09.316Z,7.70
2023-04-04T04:21:58.825Z,7.70
2023-04-04T04:24:44.672Z,7.70
2023-04-04T04:27:31.075Z,7.70
2023-04-04T04:30:16.809Z,7.60
2023-04-04T04:33:04.177Z,7.60
2023-04-04T04:36:04.273Z,7.60
2023-04-04T04:39:00.561Z,7.60
2023-04-04T04:41:50.436Z,7.60
2023-04-04T04:44:36.926Z,7.70
2023-04-04T04:47:23.782Z,7.70
2023-04-04T04:50:10.938Z,7.70
2023-04-04T04:53:01.672Z,7.60
2023-04-04T04:55:47.159Z,7.60
2023-04-04T04:58:33.146Z,7.70
2023-04-04T05:01:20.854Z,7.60
2023-04-04T05:04:07.128Z,7.60
2023-04-04T05:07:00.439Z,7.60
2023-04-04T05:09:46.660Z,7.60
2023-04-04T05:12:33.080Z,7.60
2023-04-04T05:15:18.725Z,7.60
2023-04-04T05:18:08.919Z,7.60
2023-04-04T05:20:55.388Z,7.60
2023-04-04T05:23:45.337Z,7.60
2023-04-04T05:26:32.397Z,7.60
2023-04-04T05:29:17.999Z,7.60
2023-04-04T05:32:06.947Z,7.60
2023-04-04T05:34:55.370Z,7.70
2023-04-04T05:37:41.439Z,7.90
2023-04-04T05:40:31.164Z,8.10
2023-04-04T05:43:25.010Z,8.50
2023-04-04T05:46:21.407Z,8.60
2023-04-04T05:49:10.406Z,8.80
2023-04-04T05:51:59.983Z,9.00
2023-04-04T05:54:45.546Z,9.50
2023-04-04T05:57:47.229Z,10.20
2023-04-04T06:00:35.072Z,10.50
2023-04-04T06:03:26.324Z,10.70
2023-04-04T06:06:12.822Z,10.80
2023-04-04T06:08:58.600Z,11.00
2023-04-04T06:11:44.449Z,11.00
2023-04-04T06:14:31.593Z,11.40
2023-04-04T06:17:19.069Z,11.90
2023-04-04T06:20:05.183Z,12.40
2023-04-04T06:22:53.150Z,12.60
2023-04-04T06:25:39.101Z,12.60
2023-04-04T06:28:24.881Z,12.10
2023-04-04T06:31:10.801Z,12.40
2023-04-04T06:39:32.060Z,12.40
2023-04-04T06:42:22.737Z,12.50
2023-04-04T06:50:42.957Z,12.20
2023-04-04T08:16:47.903Z,14.30
2023-04-04T08:24:37.031Z,13.70
2023-04-04T08:27:22.770Z,13.20
2023-04-04T08:30:09.343Z,13.30
2023-04-04T08:32:56.007Z,13.50
2023-04-04T08:35:41.936Z,13.70
2023-04-04T08:38:27.452Z,14.20
2023-04-04T08:41:13.742Z,14.40
2023-04-04T08:44:01.705Z,14.50
2023-04-04T08:46:48.371Z,14.40
2023-04-04T08:49:36.058Z,14.20
2023-04-04T09:23:12.561Z,14.50
2023-04-04T10:42:04.461Z,13.00
2023-04-04T10:44:51.270Z,11.90
2023-04-04T10:47:37.430Z,12.00
2023-04-04T11:29:00.232Z,12.40
2023-04-04T11:31:46.003Z,12.80
2023-04-04T11:34:32.661Z,12.70
2023-04-04T11:37:18.295Z,12.80
2023-04-04T11:40:10.750Z,12.90
2023-04-04T11:43:02.322Z,12.90
2023-04-04T11:45:48.916Z,13.10
2023-04-04T11:48:34.734Z,12.90
2023-04-04T11:51:20.419Z,13.10
2023-04-04T11:54:08.933Z,13.30
2023-04-04T11:56:54.773Z,13.30
2023-04-04T11:59:41.659Z,13.30
2023-04-04T12:02:31.778Z,13.50
2023-04-04T12:05:18.006Z,13.50
2023-04-04T12:08:05.087Z,13.20
2023-04-04T12:10:51.670Z,13.30
2023-04-04T12:13:44.789Z,13.20
2023-04-04T12:16:30.643Z,12.80
2023-04-04T12:19:17.020Z,12.80
2023-04-04T12:22:03.919Z,12.90
2023-04-04T12:24:51.503Z,13.00
2023-04-04T12:27:37.428Z,13.30
2023-04-04T12:30:23.769Z,13.30
2023-04-04T12:33:09.376Z,13.20
2023-04-04T12:35:55.112Z,13.30
2023-04-04T12:38:57.754Z,13.40
2023-04-04T12:41:53.636Z,13.20
2023-04-04T12:44:39.849Z,13.20
2023-04-04T12:47:26.612Z,13.30
2023-04-04T12:50:20.163Z,13.60
2023-04-04T12:53:23.983Z,13.90
2023-04-04T12:56:12.655Z,14.10
2023-04-04T12:59:03.357Z,13.90
2023-04-04T13:01:48.869Z,14.00
2023-04-04T13:04:34.629Z,13.60
2023-04-04T13:07:27.995Z,13.70
2023-04-04T13:10:16.211Z,13.80
2023-04-04T13:13:03.647Z,13.40
2023-04-04T13:15:50.698Z,13.60
2023-04-04T13:18:38.149Z,13.80
2023-04-04T13:21:24.028Z,13.70
2023-04-04T13:24:09.677Z,13.80
2023-04-04T13:26:55.206Z,13.90
2023-04-04T13:29:41.025Z,14.00
2023-04-04T13:32:27.010Z,13.90
2023-04-04T13:35:13.776Z,13.50
2023-04-04T13:37:59.656Z,13.70
2023-04-04T13:40:45.741Z,13.80
2023-04-04T13:43:31.560Z,13.70
2023-04-04T13:46:17.418Z,13.90
2023-04-04T13:49:03.760Z,14.10
2023-04-04T13:51:49.561Z,14.00
2023-04-04T13:54:35.299Z,14.00
2023-04-04T13:57:20.898Z,13.70
2023-04-04T14:00:06.927Z,13.80
2023-04-04T14:02:57.224Z,13.90
2023-04-04T14:05:43.456Z,14.00
2023-04-04T14:08:30.616Z,13.60
2023-04-04T14:11:16.125Z,13.10
2023-04-04T14:14:01.743Z,13.00
2023-04-04T14:16:47.495Z,13.10
2023-04-04T14:19:33.132Z,13.20
2023-04-04T14:22:18.963Z,13.50
2023-04-04T14:25:05.259Z,13.70
2023-04-04T14:27:51.305Z,13.70
2023-04-04T14:30:36.852Z,13.80
2023-04-04T14:33:22.548Z,13.40
2023-04-04T14:36:08.306Z,13.60
2023-04-04T14:38:54.705Z,13.40
2023-04-04T14:41:40.108Z,13.40
2023-04-04T14:44:25.987Z,13.40
2023-04-04T14:47:11.831Z,13.50
2023-04-04T14:49:58.257Z,13.60
2023-04-04T14:52:43.928Z,13.70
2023-04-04T14:55:29.446Z,13.70
2023-04-04T14:58:15.435Z,13.50
2023-04-04T15:01:01.614Z,13.40
2023-04-04T15:03:47.687Z,13.60
2023-04-04T15:06:36.176Z,13.60
2023-04-04T15:09:22.283Z,13.30
2023-04-04T15:12:07.933Z,13.50
2023-04-04T15:14:54.051Z,13.20
2023-04-04T15:17:39.940Z,13.00
2023-04-04T15:20:25.503Z,13.10
2023-04-04T15:23:11.293Z,13.30
2023-04-04T15:25:57.196Z,13.50
2023-04-04T15:28:42.850Z,13.50
2023-04-04T15:31:28.351Z,13.60
2023-04-04T15:34:14.280Z,13.70
2023-04-04T15:37:03.946Z,13.70
2023-04-04T15:39:53.655Z,13.70
2023-04-04T15:42:39.980Z,13.60
2023-04-04T15:45:25.663Z,13.60
2023-04-04T15:48:11.395Z,13.50
2023-04-04T15:51:02.632Z,13.50
2023-04-04T15:53:48.008Z,13.30
2023-04-04T15:56:33.761Z,13.20
2023-04-04T15:59:19.433Z,13.00
2023-04-04T16:02:45.384Z,12.80
2023-04-04T16:05:31.382Z,12.60
2023-04-04T16:08:16.820Z,12.70
2023-04-04T16:11:03.289Z,12.60
2023-04-04T16:13:49.724Z,12.70
2023-04-04T16:16:36.168Z,12.80
2023-04-04T16:19:22.186Z,13.00
2023-04-04T16:22:09.788Z,13.10
2023-04-04T16:24:55.525Z,13.10
2023-04-04T16:27:41.328Z,13.10
2023-04-04T16:30:28.519Z,12.90
2023-04-04T16:33:14.063Z,12.80
2023-04-04T16:35:59.562Z,12.80
2023-04-04T16:38:45.337Z,12.60
2023-04-04T16:41:30.983Z,12.60
2023-04-04T16:44:16.730Z,12.50
2023-04-04T16:47:02.547Z,12.50
2023-04-04T16:49:49.066Z,12.50
2023-04-04T16:52:34.506Z,12.50
2023-04-04T16:55:20.957Z,12.20
2023-04-04T16:58:06.370Z,12.20
2023-04-04T17:00:52.471Z,12.10
2023-04-04T17:03:37.918Z,12.20
2023-04-04T17:06:24.104Z,12.30
2023-04-04T17:09:09.941Z,12.20
2023-04-04T17:11:57.221Z,12.10
2023-04-04T17:14:43.590Z,12.10
2023-04-04T17:17:29.119Z,12.10
2023-04-04T17:20:18.249Z,12.20
2023-04-04T17:23:04.073Z,12.20
2023-04-04T17:25:49.658Z,12.20
2023-04-04T17:28:38.872Z,12.20
2023-04-04T17:34:36.401Z,12.20
2023-04-04T17:37:22.259Z,12.10
2023-04-04T17:40:08.612Z,12.10
2023-04-04T17:42:54.223Z,12.00
2023-04-04T17:45:40.051Z,12.00
2023-04-04T17:48:26.758Z,11.90
2023-04-04T17:51:12.616Z,11.90
2023-04-04T17:53:58.417Z,11.80
2023-04-04T17:56:45.448Z,11.70
2023-04-04T17:59:31.267Z,11.60
2023-04-04T18:02:18.537Z,11.60
2023-04-04T18:05:04.355Z,11.40
2023-04-04T18:07:49.884Z,11.40
2023-04-04T18:10:35.329Z,11.30
2023-04-04T18:13:21.264Z,11.30
2023-04-04T18:16:10.353Z,11.20
2023-04-04T18:18:56.841Z,11.20
2023-04-04T18:21:43.384Z,11.20
2023-04-04T18:24:29.337Z,11.20
2023-04-04T18:27:14.876Z,11.10
2023-04-04T18:30:01.637Z,11.10
2023-04-04T18:32:48.150Z,11.00
2023-04-04T18:35:33.830Z,10.90
2023-04-04T18:38:19.469Z,10.70
2023-04-04T18:41:05.783Z,10.70
2023-04-04T18:43:51.730Z,10.60
2023-04-04T18:47:12.095Z,10.50
2023-04-04T18:49:59.862Z,10.40
2023-04-04T18:52:45.628Z,10.30
2023-04-04T18:55:31.892Z,10.30
2023-04-04T18:58:17.663Z,10.30
2023-04-04T19:01:03.760Z,10.20
2023-04-04T19:03:51.878Z,10.20
2023-04-04T19:06:41.064Z,10.10
2023-04-04T19:09:31.731Z,10.10
2023-04-04T19:12:17.884Z,10.10
2023-04-04T19:15:03.862Z,10.00
2023-04-04T19:17:56.347Z,10.00
2023-04-04T19:20:48.637Z,9.90
2023-04-04T19:23:34.375Z,10.00
2023-04-04T19:26:20.166Z,9.90
2023-04-04T19:29:06.075Z,9.90
2023-04-04T19:31:55.467Z,9.80
2023-04-04T19:34:44.215Z,9.80
2023-04-04T19:37:30.267Z,9.70
2023-04-04T19:40:16.500Z,9.70
2023-04-04T19:43:02.247Z,9.70
2023-04-04T19:45:48.046Z,9.60
2023-04-04T19:48:36.905Z,9.60
2023-04-04T19:51:22.631Z,9.60
2023-04-04T19:54:11.809Z,9.60
2023-04-04T19:57:02.745Z,9.60
2023-04-04T19:59:56.715Z,9.60
2023-04-04T20:02:47.614Z,9.60
2023-04-04T20:05:36.268Z,9.60
2023-04-04T20:08:22.925Z,9.50
2023-04-04T20:11:08.886Z,9.50
2023-04-04T20:13:59.522Z,9.50
2023-04-04T20:16:45.238Z,9.40
2023-04-04T20:19:32.934Z,9.40
2023-04-04T20:22:18.940Z,9.30
2023-04-04T20:25:10.565Z,9.30
2023-04-04T20:27:56.146Z,9.30
2023-04-04T20:30:41.957Z,9.20
2023-04-04T20:33:35.139Z,9.20
2023-04-04T20:36:21.041Z,9.20
2023-04-04T20:39:26.667Z,9.10
2023-04-04T20:42:38.233Z,9.10
2023-04-04T20:45:28.210Z,9.20
2023-04-04T20:48:33.280Z,9.20
2023-04-04T20:51:25.136Z,9.10
2023-04-04T20:54:11.942Z,9.00
2023-04-04T20:56:57.690Z,9.00
2023-04-04T20:59:43.650Z,9.00
2023-04-04T21:02:29.555Z,9.00
2023-04-04T21:05:28.553Z,9.00
2023-04-04T21:08:34.681Z,9.00
2023-04-04T21:11:24.798Z,9.00
2023-04-04T21:14:23.631Z,9.00
2023-04-04T21:17:11.151Z,9.00
2023-04-04T21:19:57.412Z,8.90
2023-04-04T21:22:45.588Z,8.80
2023-04-04T21:25:43.368Z,8.70
2023-04-04T21:28:28.889Z,8.60
2023-04-04T21:31:18.612Z,8.60
2023-04-04T21:34:08.166Z,8.70
2023-04-04T21:36:57.630Z,8.60
2023-04-04T21:39:43.033Z,8.60
2023-04-04T21:42:30.387Z,8.50
2023-04-04T21:45:15.822Z,8.50
2023-04-04T21:48:01.691Z,8.60
2023-04-04T21:50:47.611Z,8.60
2023-04-04T21:53:33.486Z,8.50
2023-04-04T21:56:18.884Z,8.50
2023-04-04T21:59:05.638Z,8.50
2023-04-04T22:01:51.582Z,8.40
2023-04-04T22:04:37.294Z,8.30
2023-04-04T22:07:23.086Z,8.30
2023-04-04T22:10:10.957Z,8.30
2023-04-04T22:13:00.175Z,8.40
2023-04-04T22:15:46.956Z,8.30
2023-04-04T22:18:35.702Z,9.00
2023-04-04T22:21:26.075Z,8.20
2023-04-04T22:24:13.670Z,8.20
2023-04-04T22:26:59.237Z,8.10
2023-04-04T22:29:44.851Z,8.10
2023-04-04T22:32:33.593Z,8.00
2023-04-04T22:35:19.184Z,7.90
2023-04-04T22:38:05.528Z,7.90
2023-04-04T22:40:50.928Z,7.80
2023-04-04T22:43:36.643Z,7.70
2023-04-04T22:46:22.437Z,7.70
2023-04-04T22:49:08.875Z,7.60
2023-04-04T22:51:55.591Z,7.60
2023-04-04T22:54:45.037Z,7.50
2023-04-04T22:57:31.211Z,7.50
2023-04-04T23:00:16.862Z,7.40
2023-04-04T23:03:02.650Z,7.40
2023-04-04T23:05:48.023Z,7.40
2023-04-04T23:08:33.787Z,7.30
2023-04-04T23:11:19.158Z,7.30
2023-04-04T23:14:08.836Z,7.20
2023-04-04T23:16:56.766Z,7.20
2023-04-04T23:19:42.328Z,7.20
2023-04-04T23:22:28.361Z,7.20
2023-04-04T23:25:13.791Z,7.00
2023-04-04T23:27:59.264Z,6.90
2023-04-04T23:30:45.087Z,6.90
2023-04-04T23:33:30.907Z,6.90
2023-04-04T23:36:16.594Z,6.70
2023-04-04T23:39:02.289Z,6.70
2023-04-04T23:41:47.630Z,6.60
2023-04-04T23:44:33.452Z,6.50
2023-04-04T23:47:19.143Z,6.10
2023-04-04T23:50:05.088Z,6.20
2023-04-04T23:52:50.800Z,6.20
2023-04-04T23:55:36.380Z,6.30
2023-04-04T23:58:21.829Z,6.30
